sensor_id;sensor_type;location;lat;lon;timestamp;P1;durP1;ratioP1;P2;durP2;ratioP2
85196;SDS011;75566;42.698;23.346;2024-03-07T00:02:19;25.67;;;14.63;;
85196;SDS011;75566;42.698;23.346;2024-03-07T00:04:45;24.13;;;13.38;;
85196;SDS011;75566;42.698;23.346;2024-03-07T00:07:10;24.48;;;13.80;;
85196;SDS011;75566;42.698;23.346;2024-03-07T00:09:36;28.30;;;13.70;;
85196;SDS011;75566;42.698;23.346;2024-03-07T00:12:02;25.90;;;13.75;;
85196;SDS011;75566;42.698;23.346;2024-03-07T00:14:29;24.77;;;12.88;;
85196;SDS011;75566;42.698;23.346;2024-03-07T00:16:55;27.08;;;13.73;;
85196;SDS011;75566;42.698;23.346;2024-03-07T00:19:22;25.27;;;13.98;;
85196;SDS011;75566;42.698;23.346;2024-03-07T00:21:52;23.92;;;13.10;;
85196;SDS011;75566;42.698;23.346;2024-03-07T00:24:18;26.30;;;12.93;;
85196;SDS011;75566;42.698;23.346;2024-03-07T00:26:44;27.50;;;13.88;;
85196;SDS011;75566;42.698;23.346;2024-03-07T00:29:10;25.42;;;14.07;;
85196;SDS011;75566;42.698;23.346;2024-03-07T00:31:36;25.80;;;13.10;;
85196;SDS011;75566;42.698;23.346;2024-03-07T00:34:01;22.45;;;12.93;;
85196;SDS011;75566;42.698;23.346;2024-03-07T00:36:27;27.92;;;13.05;;
85196;SDS011;75566;42.698;23.346;2024-03-07T00:38:52;28.35;;;15.18;;
85196;SDS011;75566;42.698;23.346;2024-03-07T00:41:18;26.45;;;13.52;;
85196;SDS011;75566;42.698;23.346;2024-03-07T00:43:44;24.70;;;13.38;;
85196;SDS011;75566;42.698;23.346;2024-03-07T00:46:10;24.65;;;13.15;;
85196;SDS011;75566;42.698;23.346;2024-03-07T00:48:36;27.48;;;13.20;;
85196;SDS011;75566;42.698;23.346;2024-03-07T00:51:02;24.83;;;13.55;;
85196;SDS011;75566;42.698;23.346;2024-03-07T00:53:29;25.25;;;12.32;;
85196;SDS011;75566;42.698;23.346;2024-03-07T00:55:55;22.90;;;11.95;;
85196;SDS011;75566;42.698;23.346;2024-03-07T00:58:20;23.63;;;12.38;;
85196;SDS011;75566;42.698;23.346;2024-03-07T01:00:46;23.95;;;12.80;;
85196;SDS011;75566;42.698;23.346;2024-03-07T01:03:12;23.70;;;13.95;;
85196;SDS011;75566;42.698;23.346;2024-03-07T01:05:39;27.52;;;12.27;;
85196;SDS011;75566;42.698;23.346;2024-03-07T01:08:05;18.25;;;11.50;;
85196;SDS011;75566;42.698;23.346;2024-03-07T01:10:31;20.77;;;11.63;;
85196;SDS011;75566;42.698;23.346;2024-03-07T01:12:56;23.17;;;12.98;;
85196;SDS011;75566;42.698;23.346;2024-03-07T01:15:26;22.08;;;11.93;;
85196;SDS011;75566;42.698;23.346;2024-03-07T01:17:52;26.33;;;12.13;;
85196;SDS011;75566;42.698;23.346;2024-03-07T01:20:17;25.88;;;13.23;;
85196;SDS011;75566;42.698;23.346;2024-03-07T01:22:43;28.48;;;13.35;;
85196;SDS011;75566;42.698;23.346;2024-03-07T01:25:09;24.90;;;12.68;;
85196;SDS011;75566;42.698;23.346;2024-03-07T01:27:34;25.73;;;11.82;;
85196;SDS011;75566;42.698;23.346;2024-03-07T01:30:00;20.85;;;11.70;;
85196;SDS011;75566;42.698;23.346;2024-03-07T01:32:27;26.58;;;12.00;;
85196;SDS011;75566;42.698;23.346;2024-03-07T01:34:53;20.05;;;11.27;;
85196;SDS011;75566;42.698;23.346;2024-03-07T01:37:19;20.55;;;10.85;;
85196;SDS011;75566;42.698;23.346;2024-03-07T01:39:44;23.02;;;11.88;;
85196;SDS011;75566;42.698;23.346;2024-03-07T01:42:10;22.02;;;11.57;;
85196;SDS011;75566;42.698;23.346;2024-03-07T01:44:35;24.40;;;11.80;;
85196;SDS011;75566;42.698;23.346;2024-03-07T01:47:01;23.90;;;12.10;;
85196;SDS011;75566;42.698;23.346;2024-03-07T01:49:29;27.08;;;11.75;;
85196;SDS011;75566;42.698;23.346;2024-03-07T01:51:55;23.52;;;13.55;;
85196;SDS011;75566;42.698;23.346;2024-03-07T01:54:22;24.35;;;12.38;;
85196;SDS011;75566;42.698;23.346;2024-03-07T01:56:47;23.00;;;12.15;;
85196;SDS011;75566;42.698;23.346;2024-03-07T01:59:13;20.40;;;11.38;;
85196;SDS011;75566;42.698;23.346;2024-03-07T02:01:40;24.55;;;11.68;;
85196;SDS011;75566;42.698;23.346;2024-03-07T02:04:05;22.55;;;11.73;;
85196;SDS011;75566;42.698;23.346;2024-03-07T02:06:33;22.40;;;10.80;;
85196;SDS011;75566;42.698;23.346;2024-03-07T02:08:59;23.50;;;11.23;;
85196;SDS011;75566;42.698;23.346;2024-03-07T02:11:25;20.05;;;11.20;;
85196;SDS011;75566;42.698;23.346;2024-03-07T02:13:50;20.75;;;11.18;;
85196;SDS011;75566;42.698;23.346;2024-03-07T02:16:16;25.65;;;11.82;;
85196;SDS011;75566;42.698;23.346;2024-03-07T02:18:41;20.33;;;11.68;;
85196;SDS011;75566;42.698;23.346;2024-03-07T02:21:07;19.30;;;11.40;;
85196;SDS011;75566;42.698;23.346;2024-03-07T02:23:34;22.98;;;11.50;;
85196;SDS011;75566;42.698;23.346;2024-03-07T02:26:00;22.80;;;11.65;;
85196;SDS011;75566;42.698;23.346;2024-03-07T02:28:25;20.55;;;9.95;;
85196;SDS011;75566;42.698;23.346;2024-03-07T02:30:50;19.90;;;11.02;;
85196;SDS011;75566;42.698;23.346;2024-03-07T02:33:16;23.02;;;11.85;;
85196;SDS011;75566;42.698;23.346;2024-03-07T02:35:42;25.13;;;12.75;;
85196;SDS011;75566;42.698;23.346;2024-03-07T02:38:09;22.00;;;11.32;;
85196;SDS011;75566;42.698;23.346;2024-03-07T02:40:34;22.58;;;11.48;;
85196;SDS011;75566;42.698;23.346;2024-03-07T02:43:00;21.75;;;10.38;;
85196;SDS011;75566;42.698;23.346;2024-03-07T02:45:30;20.48;;;9.55;;
85196;SDS011;75566;42.698;23.346;2024-03-07T02:47:56;20.10;;;8.45;;
85196;SDS011;75566;42.698;23.346;2024-03-07T02:50:21;14.95;;;7.22;;
85196;SDS011;75566;42.698;23.346;2024-03-07T02:52:47;15.35;;;7.57;;
85196;SDS011;75566;42.698;23.346;2024-03-07T02:55:14;11.80;;;6.88;;
85196;SDS011;75566;42.698;23.346;2024-03-07T02:57:40;13.27;;;7.03;;
85196;SDS011;75566;42.698;23.346;2024-03-07T03:00:06;12.48;;;7.05;;
85196;SDS011;75566;42.698;23.346;2024-03-07T03:02:45;11.75;;;6.13;;
85196;SDS011;75566;42.698;23.346;2024-03-07T03:05:13;9.52;;;5.43;;
85196;SDS011;75566;42.698;23.346;2024-03-07T03:07:40;10.23;;;4.75;;
85196;SDS011;75566;42.698;23.346;2024-03-07T03:10:06;8.15;;;4.07;;
85196;SDS011;75566;42.698;23.346;2024-03-07T03:12:36;9.52;;;5.28;;
85196;SDS011;75566;42.698;23.346;2024-03-07T03:15:02;10.68;;;5.18;;
85196;SDS011;75566;42.698;23.346;2024-03-07T03:17:30;8.75;;;5.20;;
85196;SDS011;75566;42.698;23.346;2024-03-07T03:19:55;8.38;;;4.82;;
85196;SDS011;75566;42.698;23.346;2024-03-07T03:22:21;5.78;;;3.50;;
85196;SDS011;75566;42.698;23.346;2024-03-07T03:24:47;4.38;;;2.90;;
85196;SDS011;75566;42.698;23.346;2024-03-07T03:27:12;4.55;;;3.30;;
85196;SDS011;75566;42.698;23.346;2024-03-07T03:29:38;3.47;;;2.67;;
85196;SDS011;75566;42.698;23.346;2024-03-07T03:32:05;4.38;;;2.60;;
85196;SDS011;75566;42.698;23.346;2024-03-07T03:34:32;3.55;;;2.55;;
85196;SDS011;75566;42.698;23.346;2024-03-07T03:36:58;4.90;;;2.97;;
85196;SDS011;75566;42.698;23.346;2024-03-07T03:39:24;4.05;;;2.95;;
85196;SDS011;75566;42.698;23.346;2024-03-07T03:41:52;4.57;;;3.28;;
85196;SDS011;75566;42.698;23.346;2024-03-07T03:44:17;4.90;;;3.05;;
85196;SDS011;75566;42.698;23.346;2024-03-07T03:46:43;4.95;;;3.08;;
85196;SDS011;75566;42.698;23.346;2024-03-07T03:49:09;5.00;;;2.58;;
85196;SDS011;75566;42.698;23.346;2024-03-07T03:51:35;2.80;;;2.53;;
85196;SDS011;75566;42.698;23.346;2024-03-07T03:54:01;3.25;;;2.20;;
85196;SDS011;75566;42.698;23.346;2024-03-07T03:56:26;8.73;;;2.35;;
85196;SDS011;75566;42.698;23.346;2024-03-07T03:58:52;2.55;;;1.85;;
85196;SDS011;75566;42.698;23.346;2024-03-07T04:01:18;2.10;;;1.70;;
85196;SDS011;75566;42.698;23.346;2024-03-07T04:03:43;3.88;;;2.03;;
85196;SDS011;75566;42.698;23.346;2024-03-07T04:06:11;2.47;;;2.05;;
85196;SDS011;75566;42.698;23.346;2024-03-07T04:08:37;1.92;;;1.60;;
85196;SDS011;75566;42.698;23.346;2024-03-07T04:11:03;3.03;;;2.10;;
85196;SDS011;75566;42.698;23.346;2024-03-07T04:13:29;1.88;;;1.60;;
85196;SDS011;75566;42.698;23.346;2024-03-07T04:15:55;2.60;;;1.88;;
85196;SDS011;75566;42.698;23.346;2024-03-07T04:18:21;1.98;;;1.70;;
85196;SDS011;75566;42.698;23.346;2024-03-07T04:20:46;2.47;;;2.28;;
85196;SDS011;75566;42.698;23.346;2024-03-07T04:23:12;2.40;;;1.60;;
85196;SDS011;75566;42.698;23.346;2024-03-07T04:25:37;2.95;;;2.22;;
85196;SDS011;75566;42.698;23.346;2024-03-07T04:28:03;4.10;;;2.15;;
85196;SDS011;75566;42.698;23.346;2024-03-07T04:30:30;2.90;;;2.20;;
85196;SDS011;75566;42.698;23.346;2024-03-07T04:32:55;3.47;;;2.65;;
85196;SDS011;75566;42.698;23.346;2024-03-07T04:35:23;2.05;;;1.80;;
85196;SDS011;75566;42.698;23.346;2024-03-07T04:37:49;3.47;;;2.58;;
85196;SDS011;75566;42.698;23.346;2024-03-07T04:40:15;2.72;;;2.28;;
85196;SDS011;75566;42.698;23.346;2024-03-07T04:42:47;4.78;;;2.75;;
85196;SDS011;75566;42.698;23.346;2024-03-07T04:45:14;3.45;;;2.63;;
85196;SDS011;75566;42.698;23.346;2024-03-07T04:47:40;3.17;;;2.88;;
85196;SDS011;75566;42.698;23.346;2024-03-07T04:52:39;6.60;;;3.42;;
85196;SDS011;75566;42.698;23.346;2024-03-07T04:55:08;6.80;;;3.80;;
85196;SDS011;75566;42.698;23.346;2024-03-07T04:57:38;3.75;;;3.08;;
85196;SDS011;75566;42.698;23.346;2024-03-07T05:00:08;6.03;;;4.05;;
85196;SDS011;75566;42.698;23.346;2024-03-07T05:02:39;4.88;;;3.47;;
85196;SDS011;75566;42.698;23.346;2024-03-07T05:05:08;3.38;;;3.08;;
85196;SDS011;75566;42.698;23.346;2024-03-07T05:07:33;4.28;;;2.92;;
85196;SDS011;75566;42.698;23.346;2024-03-07T05:10:01;3.00;;;2.33;;
85196;SDS011;75566;42.698;23.346;2024-03-07T05:12:27;3.78;;;2.72;;
85196;SDS011;75566;42.698;23.346;2024-03-07T05:14:53;3.03;;;2.50;;
85196;SDS011;75566;42.698;23.346;2024-03-07T05:17:18;4.70;;;3.03;;
85196;SDS011;75566;42.698;23.346;2024-03-07T05:19:44;3.63;;;2.55;;
85196;SDS011;75566;42.698;23.346;2024-03-07T05:22:10;5.35;;;2.55;;
85196;SDS011;75566;42.698;23.346;2024-03-07T05:24:40;5.22;;;3.20;;
85196;SDS011;75566;42.698;23.346;2024-03-07T05:27:07;6.50;;;3.65;;
85196;SDS011;75566;42.698;23.346;2024-03-07T05:29:36;7.22;;;4.32;;
85196;SDS011;75566;42.698;23.346;2024-03-07T05:32:21;7.65;;;4.70;;
85196;SDS011;75566;42.698;23.346;2024-03-07T05:34:47;8.55;;;5.32;;
85196;SDS011;75566;42.698;23.346;2024-03-07T05:37:13;6.82;;;4.32;;
85196;SDS011;75566;42.698;23.346;2024-03-07T05:39:38;9.23;;;4.18;;
85196;SDS011;75566;42.698;23.346;2024-03-07T05:42:04;7.13;;;4.22;;
85196;SDS011;75566;42.698;23.346;2024-03-07T05:44:31;5.82;;;3.47;;
85196;SDS011;75566;42.698;23.346;2024-03-07T05:46:57;7.22;;;3.92;;
85196;SDS011;75566;42.698;23.346;2024-03-07T05:49:22;6.22;;;3.90;;
85196;SDS011;75566;42.698;23.346;2024-03-07T05:51:48;6.38;;;3.67;;
85196;SDS011;75566;42.698;23.346;2024-03-07T05:54:13;6.32;;;3.67;;
85196;SDS011;75566;42.698;23.346;2024-03-07T05:56:39;3.83;;;3.30;;
85196;SDS011;75566;42.698;23.346;2024-03-07T05:59:06;5.68;;;3.85;;
85196;SDS011;75566;42.698;23.346;2024-03-07T06:01:35;6.05;;;3.72;;
85196;SDS011;75566;42.698;23.346;2024-03-07T06:04:04;6.53;;;3.75;;
85196;SDS011;75566;42.698;23.346;2024-03-07T06:06:31;8.20;;;4.55;;
85196;SDS011;75566;42.698;23.346;2024-03-07T06:08:58;8.70;;;5.60;;
85196;SDS011;75566;42.698;23.346;2024-03-07T06:11:39;13.70;;;6.95;;
85196;SDS011;75566;42.698;23.346;2024-03-07T06:14:08;9.07;;;5.63;;
85196;SDS011;75566;42.698;23.346;2024-03-07T06:16:37;9.57;;;5.88;;
85196;SDS011;75566;42.698;23.346;2024-03-07T06:19:03;7.30;;;4.72;;
85196;SDS011;75566;42.698;23.346;2024-03-07T06:21:32;6.13;;;4.00;;
85196;SDS011;75566;42.698;23.346;2024-03-07T06:23:58;6.95;;;3.95;;
85196;SDS011;75566;42.698;23.346;2024-03-07T06:26:37;5.38;;;3.90;;
85196;SDS011;75566;42.698;23.346;2024-03-07T06:29:10;6.13;;;3.67;;
85196;SDS011;75566;42.698;23.346;2024-03-07T06:31:39;5.90;;;3.80;;
85196;SDS011;75566;42.698;23.346;2024-03-07T06:34:06;4.13;;;3.30;;
85196;SDS011;75566;42.698;23.346;2024-03-07T06:36:32;4.70;;;3.33;;
85196;SDS011;75566;42.698;23.346;2024-03-07T06:38:58;5.47;;;3.80;;
85196;SDS011;75566;42.698;23.346;2024-03-07T06:41:23;7.30;;;4.25;;
85196;SDS011;75566;42.698;23.346;2024-03-07T06:43:50;5.20;;;3.40;;
85196;SDS011;75566;42.698;23.346;2024-03-07T06:46:15;6.90;;;3.72;;
85196;SDS011;75566;42.698;23.346;2024-03-07T06:48:41;5.95;;;4.18;;
85196;SDS011;75566;42.698;23.346;2024-03-07T06:51:10;6.63;;;4.57;;
85196;SDS011;75566;42.698;23.346;2024-03-07T06:53:35;8.90;;;4.80;;
85196;SDS011;75566;42.698;23.346;2024-03-07T06:56:01;9.75;;;4.68;;
85196;SDS011;75566;42.698;23.346;2024-03-07T06:58:27;7.10;;;4.53;;
85196;SDS011;75566;42.698;23.346;2024-03-07T07:00:52;6.63;;;4.28;;
85196;SDS011;75566;42.698;23.346;2024-03-07T07:03:23;7.45;;;4.65;;
85196;SDS011;75566;42.698;23.346;2024-03-07T07:05:49;5.53;;;3.50;;
85196;SDS011;75566;42.698;23.346;2024-03-07T07:08:15;3.65;;;2.65;;
85196;SDS011;75566;42.698;23.346;2024-03-07T07:10:41;5.10;;;3.40;;
85196;SDS011;75566;42.698;23.346;2024-03-07T07:13:07;4.00;;;3.13;;
85196;SDS011;75566;42.698;23.346;2024-03-07T07:15:34;5.55;;;3.05;;
85196;SDS011;75566;42.698;23.346;2024-03-07T07:18:02;5.10;;;3.20;;
85196;SDS011;75566;42.698;23.346;2024-03-07T07:20:28;5.03;;;3.33;;
85196;SDS011;75566;42.698;23.346;2024-03-07T07:22:54;4.45;;;2.92;;
85196;SDS011;75566;42.698;23.346;2024-03-07T07:25:19;4.00;;;2.85;;
85196;SDS011;75566;42.698;23.346;2024-03-07T07:27:47;5.65;;;3.58;;
85196;SDS011;75566;42.698;23.346;2024-03-07T07:30:15;4.78;;;3.30;;
85196;SDS011;75566;42.698;23.346;2024-03-07T07:32:42;5.90;;;3.45;;
85196;SDS011;75566;42.698;23.346;2024-03-07T07:35:08;3.60;;;2.83;;
85196;SDS011;75566;42.698;23.346;2024-03-07T07:37:41;3.53;;;3.10;;
85196;SDS011;75566;42.698;23.346;2024-03-07T07:40:08;5.53;;;3.80;;
85196;SDS011;75566;42.698;23.346;2024-03-07T07:42:38;3.80;;;2.70;;
85196;SDS011;75566;42.698;23.346;2024-03-07T07:45:08;4.45;;;2.40;;
85196;SDS011;75566;42.698;23.346;2024-03-07T07:47:44;4.25;;;2.80;;
85196;SDS011;75566;42.698;23.346;2024-03-07T07:50:17;4.80;;;2.90;;
85196;SDS011;75566;42.698;23.346;2024-03-07T07:52:44;5.15;;;2.90;;
85196;SDS011;75566;42.698;23.346;2024-03-07T07:57:45;2.58;;;2.33;;
85196;SDS011;75566;42.698;23.346;2024-03-07T08:00:13;6.15;;;4.13;;
85196;SDS011;75566;42.698;23.346;2024-03-07T08:02:55;7.88;;;5.43;;
85196;SDS011;75566;42.698;23.346;2024-03-07T08:05:26;4.40;;;3.58;;
85196;SDS011;75566;42.698;23.346;2024-03-07T08:07:53;3.35;;;2.67;;
85196;SDS011;75566;42.698;23.346;2024-03-07T08:10:20;3.00;;;2.60;;
85196;SDS011;75566;42.698;23.346;2024-03-07T08:12:48;2.65;;;2.20;;
85196;SDS011;75566;42.698;23.346;2024-03-07T08:15:14;3.05;;;2.28;;
85196;SDS011;75566;42.698;23.346;2024-03-07T08:17:41;3.83;;;2.22;;
85196;SDS011;75566;42.698;23.346;2024-03-07T08:20:08;2.47;;;2.05;;
85196;SDS011;75566;42.698;23.346;2024-03-07T08:22:37;2.28;;;1.80;;
85196;SDS011;75566;42.698;23.346;2024-03-07T08:25:05;3.20;;;2.13;;
85196;SDS011;75566;42.698;23.346;2024-03-07T08:27:34;2.28;;;1.52;;
85196;SDS011;75566;42.698;23.346;2024-03-07T08:30:01;2.08;;;1.60;;
85196;SDS011;75566;42.698;23.346;2024-03-07T08:32:27;2.15;;;1.95;;
85196;SDS011;75566;42.698;23.346;2024-03-07T08:34:53;2.17;;;1.70;;
85196;SDS011;75566;42.698;23.346;2024-03-07T08:37:18;2.05;;;1.70;;
85196;SDS011;75566;42.698;23.346;2024-03-07T08:39:45;2.60;;;2.40;;
85196;SDS011;75566;42.698;23.346;2024-03-07T08:42:11;2.90;;;2.20;;
85196;SDS011;75566;42.698;23.346;2024-03-07T08:44:36;3.97;;;2.85;;
85196;SDS011;75566;42.698;23.346;2024-03-07T08:47:01;2.97;;;2.47;;
85196;SDS011;75566;42.698;23.346;2024-03-07T08:49:27;3.38;;;2.33;;
85196;SDS011;75566;42.698;23.346;2024-03-07T08:51:54;3.35;;;2.25;;
85196;SDS011;75566;42.698;23.346;2024-03-07T08:54:19;3.63;;;2.20;;
85196;SDS011;75566;42.698;23.346;2024-03-07T08:56:45;5.38;;;2.92;;
85196;SDS011;75566;42.698;23.346;2024-03-07T08:59:10;4.13;;;2.63;;
85196;SDS011;75566;42.698;23.346;2024-03-07T09:01:41;43.80;;;16.45;;
85196;SDS011;75566;42.698;23.346;2024-03-07T09:04:08;4.75;;;3.55;;
85196;SDS011;75566;42.698;23.346;2024-03-07T09:06:34;8.20;;;3.63;;
85196;SDS011;75566;42.698;23.346;2024-03-07T09:08:59;4.35;;;2.70;;
85196;SDS011;75566;42.698;23.346;2024-03-07T09:11:25;3.97;;;3.00;;
85196;SDS011;75566;42.698;23.346;2024-03-07T09:13:50;5.50;;;2.70;;
85196;SDS011;75566;42.698;23.346;2024-03-07T09:16:16;13.38;;;6.03;;
85196;SDS011;75566;42.698;23.346;2024-03-07T09:18:41;5.45;;;2.78;;
85196;SDS011;75566;42.698;23.346;2024-03-07T09:21:07;3.10;;;2.70;;
85196;SDS011;75566;42.698;23.346;2024-03-07T09:23:34;2.92;;;2.53;;
85196;SDS011;75566;42.698;23.346;2024-03-07T09:25:59;3.72;;;2.78;;
85196;SDS011;75566;42.698;23.346;2024-03-07T09:28:25;4.50;;;2.63;;
85196;SDS011;75566;42.698;23.346;2024-03-07T09:30:50;2.25;;;1.95;;
85196;SDS011;75566;42.698;23.346;2024-03-07T09:33:16;2.95;;;2.50;;
85196;SDS011;75566;42.698;23.346;2024-03-07T09:35:44;11.30;;;1.95;;
85196;SDS011;75566;42.698;23.346;2024-03-07T09:38:10;3.10;;;2.28;;
85196;SDS011;75566;42.698;23.346;2024-03-07T09:40:36;3.60;;;2.13;;
85196;SDS011;75566;42.698;23.346;2024-03-07T09:43:02;5.05;;;2.95;;
85196;SDS011;75566;42.698;23.346;2024-03-07T09:45:29;3.22;;;2.30;;
85196;SDS011;75566;42.698;23.346;2024-03-07T09:47:56;4.43;;;2.20;;
85196;SDS011;75566;42.698;23.346;2024-03-07T09:50:41;2.38;;;2.17;;
85196;SDS011;75566;42.698;23.346;2024-03-07T09:53:09;3.25;;;2.38;;
85196;SDS011;75566;42.698;23.346;2024-03-07T09:55:35;2.80;;;2.22;;
85196;SDS011;75566;42.698;23.346;2024-03-07T09:58:00;2.63;;;2.20;;
85196;SDS011;75566;42.698;23.346;2024-03-07T10:00:28;2.97;;;2.42;;
85196;SDS011;75566;42.698;23.346;2024-03-07T10:02:56;2.97;;;2.70;;
85196;SDS011;75566;42.698;23.346;2024-03-07T10:05:33;2.97;;;2.17;;
85196;SDS011;75566;42.698;23.346;2024-03-07T10:07:59;2.83;;;2.50;;
85196;SDS011;75566;42.698;23.346;2024-03-07T10:10:26;2.47;;;2.25;;
85196;SDS011;75566;42.698;23.346;2024-03-07T10:12:52;4.22;;;2.60;;
85196;SDS011;75566;42.698;23.346;2024-03-07T10:15:18;3.30;;;2.63;;
85196;SDS011;75566;42.698;23.346;2024-03-07T10:17:44;5.72;;;3.15;;
85196;SDS011;75566;42.698;23.346;2024-03-07T10:20:12;3.78;;;2.85;;
85196;SDS011;75566;42.698;23.346;2024-03-07T10:22:39;5.28;;;3.30;;
85196;SDS011;75566;42.698;23.346;2024-03-07T10:25:06;3.33;;;2.83;;
85196;SDS011;75566;42.698;23.346;2024-03-07T10:27:33;4.25;;;2.67;;
85196;SDS011;75566;42.698;23.346;2024-03-07T10:30:01;7.78;;;4.25;;
85196;SDS011;75566;42.698;23.346;2024-03-07T10:32:27;7.78;;;3.75;;
85196;SDS011;75566;42.698;23.346;2024-03-07T10:34:53;5.85;;;3.60;;
85196;SDS011;75566;42.698;23.346;2024-03-07T10:37:19;4.22;;;2.92;;
85196;SDS011;75566;42.698;23.346;2024-03-07T10:39:50;5.78;;;3.53;;
85196;SDS011;75566;42.698;23.346;2024-03-07T10:42:17;4.88;;;3.28;;
85196;SDS011;75566;42.698;23.346;2024-03-07T10:44:44;5.35;;;3.28;;
85196;SDS011;75566;42.698;23.346;2024-03-07T10:47:15;6.78;;;3.20;;
85196;SDS011;75566;42.698;23.346;2024-03-07T10:52:34;8.35;;;2.60;;
85196;SDS011;75566;42.698;23.346;2024-03-07T10:55:08;5.22;;;2.65;;
85196;SDS011;75566;42.698;23.346;2024-03-07T10:57:57;6.45;;;2.78;;
85196;SDS011;75566;42.698;23.346;2024-03-07T11:00:41;9.88;;;3.50;;
85196;SDS011;75566;42.698;23.346;2024-03-07T11:03:16;4.22;;;2.42;;
85196;SDS011;75566;42.698;23.346;2024-03-07T11:05:45;4.05;;;2.97;;
85196;SDS011;75566;42.698;23.346;2024-03-07T11:08:11;10.00;;;5.05;;
85196;SDS011;75566;42.698;23.346;2024-03-07T11:10:38;5.65;;;3.70;;
85196;SDS011;75566;42.698;23.346;2024-03-07T11:13:08;5.53;;;3.80;;
85196;SDS011;75566;42.698;23.346;2024-03-07T11:15:39;8.73;;;3.80;;
85196;SDS011;75566;42.698;23.346;2024-03-07T11:18:07;8.40;;;4.85;;
85196;SDS011;75566;42.698;23.346;2024-03-07T11:20:35;10.05;;;4.60;;
85196;SDS011;75566;42.698;23.346;2024-03-07T11:26:01;10.52;;;4.70;;
85196;SDS011;75566;42.698;23.346;2024-03-07T11:28:29;15.30;;;5.35;;
85196;SDS011;75566;42.698;23.346;2024-03-07T11:31:06;6.03;;;4.22;;
85196;SDS011;75566;42.698;23.346;2024-03-07T11:36:08;6.10;;;2.88;;
85196;SDS011;75566;42.698;23.346;2024-03-07T11:38:37;5.45;;;2.75;;
85196;SDS011;75566;42.698;23.346;2024-03-07T11:41:03;4.38;;;3.42;;
85196;SDS011;75566;42.698;23.346;2024-03-07T11:43:33;5.80;;;4.05;;
85196;SDS011;75566;42.698;23.346;2024-03-07T11:46:00;3.45;;;2.90;;
85196;SDS011;75566;42.698;23.346;2024-03-07T11:48:26;2.63;;;2.42;;
85196;SDS011;75566;42.698;23.346;2024-03-07T11:50:51;6.13;;;3.67;;
85196;SDS011;75566;42.698;23.346;2024-03-07T11:53:18;7.13;;;3.53;;
85196;SDS011;75566;42.698;23.346;2024-03-07T11:55:44;7.65;;;4.20;;
85196;SDS011;75566;42.698;23.346;2024-03-07T11:58:18;5.30;;;3.08;;
85196;SDS011;75566;42.698;23.346;2024-03-07T12:00:48;4.72;;;3.30;;
85196;SDS011;75566;42.698;23.346;2024-03-07T12:03:16;11.65;;;4.07;;
85196;SDS011;75566;42.698;23.346;2024-03-07T12:05:46;6.10;;;3.97;;
85196;SDS011;75566;42.698;23.346;2024-03-07T12:08:13;5.50;;;4.25;;
85196;SDS011;75566;42.698;23.346;2024-03-07T12:10:39;6.85;;;4.40;;
85196;SDS011;75566;42.698;23.346;2024-03-07T12:13:08;6.15;;;4.03;;
85196;SDS011;75566;42.698;23.346;2024-03-07T12:15:36;5.18;;;3.78;;
85196;SDS011;75566;42.698;23.346;2024-03-07T12:18:03;6.30;;;4.05;;
85196;SDS011;75566;42.698;23.346;2024-03-07T12:20:34;5.85;;;3.60;;
85196;SDS011;75566;42.698;23.346;2024-03-07T12:23:04;5.97;;;4.28;;
85196;SDS011;75566;42.698;23.346;2024-03-07T12:33:20;4.45;;;3.92;;
85196;SDS011;75566;42.698;23.346;2024-03-07T12:35:48;5.13;;;3.90;;
85196;SDS011;75566;42.698;23.346;2024-03-07T12:38:16;8.02;;;5.05;;
85196;SDS011;75566;42.698;23.346;2024-03-07T12:40:43;10.18;;;5.50;;
85196;SDS011;75566;42.698;23.346;2024-03-07T12:43:18;7.97;;;3.90;;
85196;SDS011;75566;42.698;23.346;2024-03-07T12:45:49;10.45;;;5.15;;
85196;SDS011;75566;42.698;23.346;2024-03-07T12:48:16;7.45;;;4.45;;
85196;SDS011;75566;42.698;23.346;2024-03-07T12:50:45;8.20;;;4.90;;
85196;SDS011;75566;42.698;23.346;2024-03-07T12:53:10;12.68;;;6.10;;
85196;SDS011;75566;42.698;23.346;2024-03-07T12:55:39;6.75;;;4.30;;
85196;SDS011;75566;42.698;23.346;2024-03-07T12:58:08;10.43;;;5.13;;
85196;SDS011;75566;42.698;23.346;2024-03-07T13:00:35;9.77;;;4.18;;
85196;SDS011;75566;42.698;23.346;2024-03-07T13:03:01;10.55;;;5.60;;
85196;SDS011;75566;42.698;23.346;2024-03-07T13:05:26;10.60;;;5.50;;
85196;SDS011;75566;42.698;23.346;2024-03-07T13:07:52;7.78;;;4.90;;
85196;SDS011;75566;42.698;23.346;2024-03-07T13:10:18;12.15;;;6.03;;
85196;SDS011;75566;42.698;23.346;2024-03-07T13:12:45;8.55;;;5.22;;
85196;SDS011;75566;42.698;23.346;2024-03-07T13:15:14;6.82;;;3.80;;
85196;SDS011;75566;42.698;23.346;2024-03-07T13:17:40;8.82;;;5.43;;
85196;SDS011;75566;42.698;23.346;2024-03-07T13:20:08;6.75;;;4.90;;
85196;SDS011;75566;42.698;23.346;2024-03-07T13:22:38;6.93;;;3.92;;
85196;SDS011;75566;42.698;23.346;2024-03-07T13:25:14;9.52;;;4.68;;
85196;SDS011;75566;42.698;23.346;2024-03-07T13:30:20;5.60;;;4.05;;
85196;SDS011;75566;42.698;23.346;2024-03-07T13:32:52;7.28;;;4.22;;
85196;SDS011;75566;42.698;23.346;2024-03-07T13:35:19;5.53;;;3.95;;
85196;SDS011;75566;42.698;23.346;2024-03-07T13:37:46;6.60;;;3.92;;
85196;SDS011;75566;42.698;23.346;2024-03-07T13:40:12;5.57;;;3.40;;
85196;SDS011;75566;42.698;23.346;2024-03-07T13:47:56;6.60;;;3.90;;
85196;SDS011;75566;42.698;23.346;2024-03-07T13:50:24;5.88;;;3.90;;
85196;SDS011;75566;42.698;23.346;2024-03-07T13:52:53;5.25;;;3.88;;
85196;SDS011;75566;42.698;23.346;2024-03-07T14:06:29;4.90;;;3.90;;
85196;SDS011;75566;42.698;23.346;2024-03-07T14:27:10;6.60;;;4.30;;
85196;SDS011;75566;42.698;23.346;2024-03-07T14:32:48;13.82;;;6.75;;
85196;SDS011;75566;42.698;23.346;2024-03-07T14:35:22;10.55;;;5.88;;
85196;SDS011;75566;42.698;23.346;2024-03-07T14:40:30;8.52;;;5.80;;
85196;SDS011;75566;42.698;23.346;2024-03-07T14:42:56;5.38;;;4.22;;
85196;SDS011;75566;42.698;23.346;2024-03-07T14:45:30;8.07;;;4.45;;
85196;SDS011;75566;42.698;23.346;2024-03-07T14:48:02;8.05;;;4.43;;
85196;SDS011;75566;42.698;23.346;2024-03-07T14:50:29;9.50;;;5.03;;
85196;SDS011;75566;42.698;23.346;2024-03-07T14:52:57;11.48;;;5.63;;
85196;SDS011;75566;42.698;23.346;2024-03-07T14:55:23;9.43;;;5.25;;
85196;SDS011;75566;42.698;23.346;2024-03-07T14:57:49;6.30;;;4.70;;
85196;SDS011;75566;42.698;23.346;2024-03-07T15:00:15;13.13;;;6.18;;
85196;SDS011;75566;42.698;23.346;2024-03-07T15:02:51;9.07;;;5.70;;
85196;SDS011;75566;42.698;23.346;2024-03-07T15:05:22;10.18;;;6.68;;
85196;SDS011;75566;42.698;23.346;2024-03-07T15:07:48;12.20;;;5.90;;
85196;SDS011;75566;42.698;23.346;2024-03-07T15:10:19;8.32;;;5.25;;
85196;SDS011;75566;42.698;23.346;2024-03-07T15:12:49;9.63;;;6.15;;
85196;SDS011;75566;42.698;23.346;2024-03-07T15:15:15;11.02;;;6.53;;
85196;SDS011;75566;42.698;23.346;2024-03-07T15:17:41;10.75;;;5.93;;
85196;SDS011;75566;42.698;23.346;2024-03-07T15:20:08;8.18;;;5.65;;
85196;SDS011;75566;42.698;23.346;2024-03-07T15:22:40;12.77;;;4.78;;
85196;SDS011;75566;42.698;23.346;2024-03-07T15:25:11;10.27;;;5.43;;
85196;SDS011;75566;42.698;23.346;2024-03-07T15:27:56;9.77;;;5.70;;
85196;SDS011;75566;42.698;23.346;2024-03-07T15:30:23;6.45;;;4.30;;
85196;SDS011;75566;42.698;23.346;2024-03-07T15:33:07;6.90;;;4.15;;
85196;SDS011;75566;42.698;23.346;2024-03-07T15:35:33;7.40;;;3.92;;